createdAt,value
2022-09-12T00:00:52.598Z,10.83
2022-09-12T00:03:19.100Z,10.76
2022-09-12T00:05:47.110Z,10.65
2022-09-12T00:08:14.516Z,10.60
2022-09-12T00:10:42.909Z,10.46
2022-09-12T00:13:10.492Z,10.53
2022-09-12T00:15:41.523Z,10.44
2022-09-12T00:18:10.472Z,10.55
2022-09-12T00:20:42.402Z,10.57
2022-09-12T00:23:08.920Z,10.60
2022-09-12T00:25:40.600Z,10.52
2022-09-12T00:28:07.052Z,10.61
2022-09-12T00:30:34.322Z,10.46
2022-09-12T00:33:00.803Z,10.46
2022-09-12T00:35:27.249Z,10.48
2022-09-12T00:37:53.678Z,10.49
2022-09-12T00:40:20.191Z,10.41
2022-09-12T00:42:46.639Z,10.37
2022-09-12T00:45:24.370Z,10.44
2022-09-12T00:47:50.868Z,10.31
2022-09-12T00:50:18.050Z,10.33
2022-09-12T00:52:49.723Z,10.31
2022-09-12T00:55:40.351Z,10.27
2022-09-12T00:58:13.631Z,10.27
2022-09-12T01:00:40.319Z,10.27
2022-09-12T01:03:14.754Z,10.27
2022-09-12T01:05:47.155Z,10.19
2022-09-12T01:08:13.564Z,10.01
2022-09-12T01:10:42.491Z,10.03
2022-09-12T01:13:10.333Z,10.09
2022-09-12T01:15:39.877Z,10.12
2022-09-12T01:18:25.097Z,10.09
2022-09-12T01:21:15.241Z,10.15
2022-09-12T01:24:26.218Z,10.13
2022-09-12T01:27:19.217Z,10.13
2022-09-12T01:30:01.671Z,10.25
2022-09-12T01:33:06.337Z,10.19
2022-09-12T01:35:44.988Z,10.27
2022-09-12T01:38:43.571Z,10.24
2022-09-12T01:41:41.084Z,10.22
2022-09-12T01:44:19.033Z,10.34
2022-09-12T01:47:16.553Z,10.42
2022-09-12T01:49:50.064Z,10.40
2022-09-12T01:52:37.687Z,10.31
2022-09-12T01:55:13.540Z,10.53
2022-09-12T01:57:48.240Z,10.36
2022-09-12T02:00:15.055Z,10.40
2022-09-12T02:02:50.681Z,10.28
2022-09-12T02:05:39.776Z,10.20
2022-09-12T02:08:20.194Z,10.26
2022-09-12T02:10:52.423Z,10.34
2022-09-12T02:13:25.832Z,10.02
2022-09-12T02:15:59.089Z,9.88
2022-09-12T02:18:27.822Z,9.80
2022-09-12T02:20:56.595Z,9.92
2022-09-12T02:23:27.574Z,9.85
2022-09-12T02:26:06.399Z,9.74
2022-09-12T02:28:38.004Z,9.76
2022-09-12T02:31:18.923Z,9.75
2022-09-12T02:34:02.048Z,9.70
2022-09-12T02:36:50.881Z,9.76
2022-09-12T02:39:20.073Z,9.71
2022-09-12T02:41:55.750Z,9.51
2022-09-12T02:44:25.267Z,9.66
2022-09-12T02:46:57.313Z,9.58
2022-09-12T02:49:24.809Z,9.66
2022-09-12T02:51:51.260Z,9.53
2022-09-12T02:54:19.140Z,9.53
2022-09-12T02:56:46.148Z,9.56
2022-09-12T02:59:18.190Z,9.43
2022-09-12T03:02:00.057Z,9.49
2022-09-12T03:05:10.954Z,9.68
2022-09-12T03:08:12.900Z,9.58
2022-09-12T03:11:25.795Z,9.62
2022-09-12T03:14:20.285Z,9.57
2022-09-12T03:16:58.019Z,9.54
2022-09-12T03:19:35.337Z,9.48
2022-09-12T03:22:21.569Z,9.45
2022-09-12T03:24:58.344Z,9.37
2022-09-12T03:27:31.284Z,9.40
2022-09-12T03:29:58.097Z,9.28
2022-09-12T03:32:51.005Z,9.37
2022-09-12T03:35:23.028Z,9.34
2022-09-12T03:37:51.012Z,9.42
2022-09-12T03:40:17.780Z,9.36
2022-09-12T03:42:44.141Z,9.34
2022-09-12T03:45:10.994Z,9.50
2022-09-12T03:47:37.525Z,9.65
2022-09-12T03:50:04.679Z,9.50
2022-09-12T03:52:31.075Z,9.58
2022-09-12T03:54:57.505Z,9.50
2022-09-12T03:57:23.898Z,9.48
2022-09-12T03:59:50.737Z,9.52
2022-09-12T04:02:17.776Z,9.54
2022-09-12T04:04:44.827Z,9.39
2022-09-12T04:07:11.610Z,9.48
2022-09-12T04:09:38.201Z,9.20
2022-09-12T04:12:05.069Z,9.29
2022-09-12T04:14:31.459Z,9.35
2022-09-12T04:16:57.973Z,9.15
2022-09-12T04:19:25.827Z,9.32
2022-09-12T04:21:52.239Z,9.30
2022-09-12T04:24:18.666Z,9.50
2022-09-12T04:26:45.045Z,9.59
2022-09-12T04:29:15.191Z,9.69
2022-09-12T04:31:41.967Z,9.42
2022-09-12T04:34:08.773Z,9.33
2022-09-12T04:36:35.647Z,9.41
2022-09-12T04:39:03.987Z,9.47
2022-09-12T04:41:33.427Z,9.50
2022-09-12T04:44:04.006Z,9.42
2022-09-12T04:46:33.474Z,9.26
2022-09-12T04:48:59.885Z,9.37
2022-09-12T04:51:35.704Z,9.28
2022-09-12T04:54:07.266Z,9.23
2022-09-12T04:56:43.371Z,9.23
2022-09-12T04:59:11.655Z,9.21
2022-09-12T05:01:38.450Z,9.11
2022-09-12T05:04:05.091Z,9.27
2022-09-12T05:06:34.983Z,9.24
2022-09-12T05:09:02.829Z,9.27
2022-09-12T05:11:53.005Z,9.49
2022-09-12T05:14:19.029Z,9.31
2022-09-12T05:16:49.191Z,9.32
2022-09-12T05:19:16.539Z,9.47
2022-09-12T05:21:42.901Z,9.43
2022-09-12T05:24:11.395Z,9.42
2022-09-12T05:26:37.840Z,9.29
2022-09-12T05:29:04.746Z,9.37
2022-09-12T05:31:31.145Z,9.22
2022-09-12T05:33:57.718Z,9.05
2022-09-12T05:36:26.713Z,9.19
2022-09-12T05:38:53.930Z,9.26
2022-09-12T05:41:25.103Z,9.27
2022-09-12T05:43:56.350Z,9.31
2022-09-12T05:46:25.771Z,9.34
2022-09-12T05:48:56.381Z,9.53
2022-09-12T05:51:28.622Z,9.56
2022-09-12T05:53:57.370Z,9.51
2022-09-12T05:56:26.000Z,9.51
2022-09-12T05:58:55.837Z,9.56
2022-09-12T06:01:22.630Z,9.63
2022-09-12T06:03:51.677Z,9.58
2022-09-12T06:06:21.584Z,9.59
2022-09-12T06:08:51.222Z,9.85
2022-09-12T06:11:20.870Z,9.95
2022-09-12T06:13:47.454Z,9.85
2022-09-12T06:16:19.061Z,9.93
2022-09-12T06:18:53.862Z,10.01
2022-09-12T06:21:21.214Z,9.94
2022-09-12T06:23:48.752Z,9.73
2022-09-12T06:26:17.697Z,9.89
2022-09-12T06:28:45.028Z,10.18
2022-09-12T06:31:14.996Z,10.56
2022-09-12T06:33:43.783Z,10.62
2022-09-12T06:36:13.680Z,10.41
2022-09-12T06:38:40.560Z,10.37
2022-09-12T06:41:10.161Z,10.19
2022-09-12T06:43:37.025Z,10.88
2022-09-12T06:46:04.370Z,11.11
2022-09-12T06:48:30.987Z,11.11
2022-09-12T06:51:02.670Z,11.54
2022-09-12T06:53:32.344Z,11.63
2022-09-12T06:56:04.680Z,11.57
2022-09-12T06:58:31.595Z,11.47
2022-09-12T07:01:05.449Z,11.37
2022-09-12T07:03:33.006Z,11.65
2022-09-12T07:06:08.088Z,12.08
2022-09-12T07:08:35.447Z,11.78
2022-09-12T07:11:28.472Z,12.05
2022-09-12T07:13:56.503Z,12.33
2022-09-12T07:16:23.678Z,12.23
2022-09-12T07:18:52.300Z,12.28
2022-09-12T07:21:19.243Z,12.45
2022-09-12T07:23:45.916Z,12.49
2022-09-12T07:26:13.936Z,12.77
2022-09-12T07:28:41.178Z,13.05
2022-09-12T07:31:12.744Z,13.02
2022-09-12T07:33:41.080Z,12.55
2022-09-12T07:36:11.618Z,13.42
2022-09-12T07:38:38.817Z,13.28
2022-09-12T07:41:23.829Z,13.58
2022-09-12T07:43:54.883Z,13.97
2022-09-12T07:46:23.853Z,13.86
2022-09-12T07:48:51.613Z,13.41
2022-09-12T07:51:18.995Z,14.14
2022-09-12T07:53:46.669Z,14.80
2022-09-12T07:56:13.571Z,15.27
2022-09-12T07:58:41.900Z,15.53
2022-09-12T08:01:13.895Z,15.81
2022-09-12T08:03:41.921Z,16.45
2022-09-12T08:06:12.083Z,16.66
2022-09-12T08:08:38.892Z,16.95
2022-09-12T08:11:08.100Z,18.25
2022-09-12T08:13:36.001Z,18.33
2022-09-12T08:16:06.044Z,19.57
2022-09-12T08:18:33.203Z,20.20
2022-09-12T08:21:05.699Z,19.46
2022-09-12T08:23:33.015Z,19.45
2022-09-12T08:26:05.952Z,19.61
2022-09-12T08:28:35.001Z,20.29
2022-09-12T08:31:07.183Z,21.18
2022-09-12T08:33:34.493Z,20.52
2022-09-12T08:36:08.699Z,21.40
2022-09-12T08:38:36.325Z,22.52
2022-09-12T08:41:11.730Z,22.04
2022-09-12T08:43:58.883Z,22.31
2022-09-12T08:46:57.191Z,20.61
2022-09-12T08:49:42.522Z,21.27
2022-09-12T08:52:17.192Z,21.82
2022-09-12T08:54:45.536Z,22.30
2022-09-12T08:57:15.100Z,22.78
2022-09-12T08:59:44.864Z,22.62
2022-09-12T09:02:34.466Z,21.60
2022-09-12T09:05:32.152Z,22.52
2022-09-12T09:08:30.877Z,23.95
2022-09-12T09:11:12.880Z,23.03
2022-09-12T09:14:14.861Z,23.95
2022-09-12T09:16:43.813Z,23.95
2022-09-12T09:19:51.105Z,25.07
2022-09-12T09:22:32.479Z,24.72
2022-09-12T09:25:05.753Z,25.69
2022-09-12T09:27:41.839Z,25.58
2022-09-12T09:30:18.122Z,26.40
2022-09-12T09:32:50.133Z,23.85
2022-09-12T09:35:19.441Z,25.30
2022-09-12T09:38:00.325Z,25.15
2022-09-12T09:40:50.657Z,26.63
2022-09-12T09:43:27.469Z,26.02
2022-09-12T09:45:54.298Z,26.14
2022-09-12T09:48:32.685Z,27.09
2022-09-12T09:51:01.863Z,26.95
2022-09-12T09:53:44.056Z,26.38
2022-09-12T09:56:24.875Z,26.73
2022-09-12T09:58:51.277Z,27.42
2022-09-12T10:01:19.247Z,27.84
2022-09-12T10:03:52.450Z,26.24
2022-09-12T10:06:34.233Z,27.83
2022-09-12T10:09:22.405Z,26.79
2022-09-12T10:11:50.433Z,25.40
2022-09-12T10:14:39.911Z,26.76
2022-09-12T10:17:24.487Z,27.38
2022-09-12T10:20:10.627Z,27.92
2022-09-12T10:22:38.642Z,27.42
2022-09-12T10:25:12.319Z,28.44
2022-09-12T10:27:38.763Z,26.81
2022-09-12T10:30:18.546Z,26.69
2022-09-12T10:32:54.188Z,28.44
2022-09-12T10:35:42.386Z,28.85
2022-09-12T10:38:21.252Z,26.72
2022-09-12T10:40:58.054Z,28.75
2022-09-12T10:43:27.735Z,29.01
2022-09-12T10:45:58.536Z,26.52
2022-09-12T10:48:32.137Z,26.96
2022-09-12T10:51:00.164Z,27.09
2022-09-12T10:53:34.737Z,27.73
2022-09-12T10:56:11.218Z,28.56
2022-09-12T10:58:55.771Z,27.75
2022-09-12T11:01:41.962Z,29.31
2022-09-12T11:04:21.838Z,28.05
2022-09-12T11:07:16.751Z,26.77
2022-09-12T11:09:49.334Z,27.25
2022-09-12T11:12:20.915Z,27.02
2022-09-12T11:14:56.641Z,26.32
2022-09-12T11:17:33.492Z,27.29
2022-09-12T11:20:14.075Z,27.19
2022-09-12T11:23:15.674Z,27.71
2022-09-12T11:26:00.214Z,26.96
2022-09-12T11:29:10.881Z,27.83
2022-09-12T11:31:55.936Z,27.55
2022-09-12T11:35:03.197Z,27.40
2022-09-12T11:37:46.212Z,26.60
2022-09-12T11:40:33.094Z,25.84
2022-09-12T11:43:06.710Z,27.62
2022-09-12T11:45:42.433Z,26.82
2022-09-12T11:48:19.612Z,27.52
2022-09-12T11:50:46.204Z,27.37
2022-09-12T11:53:22.741Z,27.93
2022-09-12T11:56:02.148Z,28.16
2022-09-12T11:58:29.685Z,27.13
2022-09-12T12:01:11.485Z,26.38
2022-09-12T12:03:44.140Z,27.03
2022-09-12T12:06:23.010Z,26.44
2022-09-12T12:08:51.018Z,26.42
2022-09-12T12:11:39.377Z,25.56
2022-09-12T12:14:22.470Z,27.36
2022-09-12T12:16:50.175Z,29.49
2022-09-12T12:19:16.475Z,30.19
2022-09-12T12:21:48.219Z,29.73
2022-09-12T12:24:16.780Z,29.41
2022-09-12T12:27:21.558Z,31.13
2022-09-12T12:29:48.306Z,30.53
2022-09-12T12:32:17.664Z,28.01
2022-09-12T12:34:46.221Z,28.22
2022-09-12T12:37:18.694Z,26.79
2022-09-12T12:39:48.457Z,27.10
2022-09-12T12:42:33.728Z,26.99
2022-09-12T12:45:02.004Z,25.71
2022-09-12T12:47:41.018Z,25.41
2022-09-12T12:50:10.919Z,24.30
2022-09-12T12:52:51.787Z,23.59
2022-09-12T12:55:39.070Z,26.14
2022-09-12T12:58:07.773Z,27.22
2022-09-12T13:00:40.270Z,25.69
2022-09-12T13:03:09.516Z,26.96
2022-09-12T13:05:48.528Z,26.93
2022-09-12T13:08:17.866Z,27.38
2022-09-12T13:11:00.825Z,26.98
2022-09-12T13:13:41.581Z,26.47
2022-09-12T13:16:11.223Z,25.90
2022-09-12T13:18:48.257Z,26.14
2022-09-12T13:21:20.002Z,26.11
2022-09-12T13:24:19.833Z,24.75
2022-09-12T13:26:47.537Z,25.26
2022-09-12T13:29:22.813Z,25.12
2022-09-12T13:31:54.116Z,24.71
2022-09-12T13:34:24.610Z,24.97
2022-09-12T13:37:38.913Z,25.03
2022-09-12T13:40:24.196Z,25.37
2022-09-12T13:43:08.873Z,25.38
2022-09-12T13:45:37.564Z,25.77
2022-09-12T13:48:05.285Z,25.01
2022-09-12T13:50:53.910Z,25.47
2022-09-12T13:53:24.112Z,24.78
2022-09-12T13:55:55.450Z,25.10
2022-09-12T13:58:34.494Z,25.13
2022-09-12T14:01:09.936Z,25.11
2022-09-12T14:04:01.267Z,25.18
2022-09-12T14:06:28.429Z,24.60
2022-09-12T14:08:58.612Z,25.06
2022-09-12T14:11:28.223Z,25.60
2022-09-12T14:13:56.238Z,25.32
2022-09-12T14:16:23.933Z,24.16
2022-09-12T14:18:54.615Z,24.16
2022-09-12T14:21:31.242Z,24.89
2022-09-12T14:23:59.497Z,24.74
2022-09-12T14:26:28.247Z,24.22
2022-09-12T14:28:54.816Z,24.26
2022-09-12T14:31:29.924Z,24.63
2022-09-12T14:34:17.863Z,23.83
2022-09-12T14:36:56.221Z,24.15
2022-09-12T14:39:39.773Z,24.80
2022-09-12T14:42:16.501Z,23.65
2022-09-12T14:44:59.064Z,23.23
2022-09-12T14:47:27.640Z,23.26
2022-09-12T14:49:54.625Z,23.68
2022-09-12T14:52:25.529Z,23.30
2022-09-12T14:55:18.672Z,23.29
2022-09-12T14:57:47.908Z,23.65
2022-09-12T15:00:14.665Z,24.15
2022-09-12T15:02:42.998Z,23.76
2022-09-12T15:05:10.646Z,23.79
2022-09-12T15:07:37.046Z,23.34
2022-09-12T15:10:26.788Z,23.62
2022-09-12T15:13:05.400Z,24.00
2022-09-12T15:15:32.691Z,23.99
2022-09-12T15:18:01.424Z,23.80
2022-09-12T15:20:32.972Z,23.86
2022-09-12T15:22:59.478Z,23.68
2022-09-12T15:25:25.864Z,23.58
2022-09-12T15:27:53.572Z,23.51
2022-09-12T15:30:19.943Z,23.39
2022-09-12T15:32:46.430Z,23.10
2022-09-12T15:35:22.529Z,23.27
2022-09-12T15:37:49.801Z,23.38
2022-09-12T15:40:16.946Z,23.29
2022-09-12T15:42:43.772Z,23.31
2022-09-12T15:45:19.729Z,23.34
2022-09-12T15:47:46.418Z,23.27
2022-09-12T15:50:13.581Z,23.17
2022-09-12T15:52:40.142Z,23.03
2022-09-12T15:55:16.021Z,23.22
2022-09-12T15:57:42.459Z,23.11
2022-09-12T16:00:09.673Z,23.03
2022-09-12T16:02:36.061Z,22.84
2022-09-12T16:05:02.456Z,22.70
2022-09-12T16:07:30.239Z,22.57
2022-09-12T16:09:56.660Z,22.45
2022-09-12T16:12:23.226Z,22.28
2022-09-12T16:14:50.092Z,22.21
2022-09-12T16:17:16.824Z,22.29
2022-09-12T16:19:43.282Z,22.26
2022-09-12T16:22:10.504Z,22.21
2022-09-12T16:24:37.743Z,22.07
2022-09-12T16:27:04.225Z,22.11
2022-09-12T16:29:31.452Z,22.19
2022-09-12T16:31:57.890Z,22.26
2022-09-12T16:34:24.270Z,21.93
2022-09-12T16:36:51.490Z,22.07
2022-09-12T16:39:17.960Z,21.88
2022-09-12T16:41:44.528Z,21.87
2022-09-12T16:44:11.531Z,21.79
2022-09-12T16:46:38.076Z,21.78
2022-09-12T16:49:06.045Z,21.73
2022-09-12T16:51:35.884Z,21.65
2022-09-12T16:54:02.967Z,21.51
2022-09-12T16:56:29.999Z,21.43
2022-09-12T16:58:56.691Z,21.20
2022-09-12T17:01:24.891Z,21.05
2022-09-12T17:03:58.406Z,20.69
2022-09-12T17:06:25.444Z,20.51
2022-09-12T17:08:53.585Z,20.22
2022-09-12T17:11:22.539Z,20.19
2022-09-12T17:14:04.493Z,20.19
2022-09-12T17:16:33.203Z,20.09
2022-09-12T17:18:59.622Z,19.97
2022-09-12T17:21:26.192Z,19.87
2022-09-12T17:23:52.664Z,19.54
2022-09-12T17:26:19.085Z,19.54
2022-09-12T17:28:45.474Z,19.37
2022-09-12T17:31:14.505Z,19.09
2022-09-12T17:33:41.573Z,18.97
2022-09-12T17:36:15.075Z,18.83
2022-09-12T17:38:42.144Z,18.75
2022-09-12T17:41:15.025Z,18.65
2022-09-12T17:43:41.703Z,18.34
2022-09-12T17:46:08.475Z,18.30
2022-09-12T17:48:35.304Z,18.10
2022-09-12T17:51:13.512Z,17.91
2022-09-12T17:53:40.966Z,17.83
2022-09-12T17:56:07.446Z,17.82
2022-09-12T17:58:34.749Z,17.74
2022-09-12T18:01:30.971Z,17.58
2022-09-12T18:04:00.584Z,17.52
2022-09-12T18:06:28.532Z,17.43
2022-09-12T18:08:54.993Z,17.23
2022-09-12T18:11:21.545Z,17.15
2022-09-12T18:13:48.073Z,17.22
2022-09-12T18:16:14.678Z,17.18
2022-09-12T18:18:41.230Z,17.11
2022-09-12T18:21:10.486Z,17.07
2022-09-12T18:23:37.235Z,17.05
2022-09-12T18:26:06.397Z,17.05
2022-09-12T18:28:34.354Z,17.00
2022-09-12T18:31:00.885Z,16.84
2022-09-12T18:33:27.358Z,16.65
2022-09-12T18:35:54.016Z,16.62
2022-09-12T18:38:20.651Z,16.65
2022-09-12T18:40:47.210Z,16.60
2022-09-12T18:43:14.400Z,16.60
2022-09-12T18:45:40.828Z,16.55
2022-09-12T18:48:07.245Z,16.66
2022-09-12T18:50:33.656Z,16.64
2022-09-12T18:53:00.171Z,16.56
2022-09-12T18:55:26.802Z,16.56
2022-09-12T18:57:55.330Z,16.38
2022-09-12T19:00:21.703Z,16.46
2022-09-12T19:02:48.176Z,16.39
2022-09-12T19:05:14.697Z,16.21
2022-09-12T19:07:41.214Z,16.14
2022-09-12T19:10:08.884Z,15.79
2022-09-12T19:12:35.317Z,15.97
2022-09-12T19:15:01.781Z,15.83
2022-09-12T19:17:28.254Z,15.78
2022-09-12T19:19:55.460Z,15.87
2022-09-12T19:22:22.218Z,15.87
2022-09-12T19:24:48.591Z,15.81
2022-09-12T19:27:16.081Z,15.74
2022-09-12T19:29:42.525Z,15.49
2022-09-12T19:32:09.106Z,15.34
2022-09-12T19:34:35.625Z,15.24
2022-09-12T19:37:02.123Z,15.38
2022-09-12T19:39:28.625Z,15.32
2022-09-12T19:41:55.050Z,15.24
2022-09-12T19:44:21.582Z,15.26
2022-09-12T19:46:48.056Z,15.16
2022-09-12T19:49:14.687Z,15.07
2022-09-12T19:51:41.563Z,14.98
2022-09-12T19:54:08.357Z,15.01
2022-09-12T19:56:35.247Z,15.02
2022-09-12T19:59:01.701Z,15.00
2022-09-12T20:01:28.677Z,14.99
2022-09-12T20:03:56.732Z,15.02
2022-09-12T20:06:23.805Z,14.85
2022-09-12T20:08:51.013Z,14.87
2022-09-12T20:11:19.550Z,14.96
2022-09-12T20:13:46.789Z,14.92
2022-09-12T20:16:29.058Z,14.82
2022-09-12T20:19:01.825Z,14.62
2022-09-12T20:21:35.768Z,14.61
2022-09-12T20:24:04.943Z,14.46
2022-09-12T20:26:31.933Z,14.32
2022-09-12T20:28:58.558Z,14.29
2022-09-12T20:31:24.997Z,14.24
2022-09-12T20:33:52.051Z,14.31
2022-09-12T20:36:20.168Z,14.25
2022-09-12T20:38:56.832Z,14.36
2022-09-12T20:41:24.757Z,14.39
2022-09-12T20:43:52.224Z,14.28
2022-09-12T20:46:21.801Z,14.30
2022-09-12T20:48:49.660Z,14.31
2022-09-12T20:51:16.690Z,14.13
2022-09-12T20:53:43.218Z,14.15
2022-09-12T20:56:09.987Z,14.20
2022-09-12T20:58:39.381Z,14.22
2022-09-12T21:01:14.134Z,14.22
2022-09-12T21:03:41.977Z,14.22
2022-09-12T21:06:09.971Z,14.14
2022-09-12T21:08:37.326Z,14.15
2022-09-12T21:11:07.624Z,13.99
2022-09-12T21:13:34.390Z,13.96
2022-09-12T21:16:11.216Z,13.80
2022-09-12T21:18:38.244Z,13.69
2022-09-12T21:21:05.937Z,13.61
2022-09-12T21:23:33.733Z,13.60
2022-09-12T21:26:00.541Z,13.59
2022-09-12T21:28:27.098Z,13.46
2022-09-12T21:30:53.678Z,13.62
2022-09-12T21:33:21.362Z,13.50
2022-09-12T21:35:48.061Z,13.49
2022-09-12T21:38:15.543Z,13.39
2022-09-12T21:40:42.121Z,13.34
2022-09-12T21:43:12.557Z,13.38
2022-09-12T21:45:39.674Z,13.25
2022-09-12T21:48:06.104Z,13.26
2022-09-12T21:50:32.519Z,13.32
2022-09-12T21:52:58.949Z,13.27
2022-09-12T21:55:27.196Z,13.24
2022-09-12T21:57:54.741Z,13.25
2022-09-12T22:00:21.346Z,13.29
2022-09-12T22:02:48.320Z,13.28
2022-09-12T22:05:15.265Z,13.24
2022-09-12T22:07:41.815Z,13.15
2022-09-12T22:10:08.829Z,13.23
2022-09-12T22:12:35.196Z,13.29
2022-09-12T22:15:12.828Z,13.33
2022-09-12T22:17:48.039Z,13.21
2022-09-12T22:20:14.514Z,13.29
2022-09-12T22:23:00.590Z,13.21
2022-09-12T22:25:27.132Z,13.33
2022-09-12T22:27:54.593Z,13.11
2022-09-12T22:30:22.741Z,13.15
2022-09-12T22:32:51.206Z,13.28
2022-09-12T22:35:18.574Z,13.29
2022-09-12T22:37:46.899Z,13.22
2022-09-12T22:40:13.761Z,13.14
2022-09-12T22:42:40.446Z,13.07
2022-09-12T22:45:07.734Z,13.16
2022-09-12T22:47:34.145Z,13.08
2022-09-12T22:50:00.537Z,13.07
2022-09-12T22:52:26.903Z,13.17
2022-09-12T22:54:53.529Z,13.16
2022-09-12T22:57:19.908Z,13.09
2022-09-12T22:59:46.599Z,13.04
2022-09-12T23:02:13.042Z,12.97
2022-09-12T23:04:40.002Z,12.94
2022-09-12T23:07:06.655Z,13.06
2022-09-12T23:09:35.426Z,13.13
2022-09-12T23:12:02.386Z,13.01
2022-09-12T23:14:28.773Z,13.02
2022-09-12T23:16:55.224Z,13.00
2022-09-12T23:19:21.642Z,13.04
2022-09-12T23:21:48.288Z,13.05
2022-09-12T23:24:14.857Z,13.13
2022-09-12T23:26:41.216Z,13.05
2022-09-12T23:29:07.672Z,12.96
2022-09-12T23:31:34.152Z,12.98
2022-09-12T23:34:04.083Z,12.92
2022-09-12T23:36:30.632Z,13.09
2022-09-12T23:38:57.226Z,13.05
2022-09-12T23:41:24.117Z,13.05
2022-09-12T23:43:50.690Z,13.02
2022-09-12T23:46:18.535Z,12.98
2022-09-12T23:48:45.321Z,12.90
2022-09-12T23:51:12.193Z,13.05
2022-09-12T23:53:39.038Z,13.07
2022-09-12T23:56:05.933Z,13.13
2022-09-12T23:58:32.548Z,13.07
